Time;durP1;ratioP1;P1;durP2;ratioP2;P2;SDS_P1;SDS_P2;PMS_P1;PMS_P2;Temp;Humidity;BMP_temperature;BMP_pressure;BME280_temperature;BME280_humidity;BME280_pressure;Samples;Min_cycle;Max_cycle;Signal;HPM_P1;HPM_P2
2023/05/30 00:01:18;;;;;;;33.58;27.75;;;22.60;86.40;;;;;;4981453;28;20030;-49
2023/05/30 00:03:44;;;;;;;;;;;22.50;86.40;;;;;;4984614;28;20444;-48
2023/05/30 00:06:11;;;;;;;37.88;27.58;;;22.50;83.10;;;;;;4982848;28;19913;-49
2023/05/30 00:08:37;;;;;;;36.55;28.70;;;22.40;86.70;;;;;;4991441;28;20023;-50
2023/05/30 00:11:03;;;;;;;39.93;29.60;;;22.40;87.30;;;;;;4986830;28;20023;-50
2023/05/30 00:13:28;;;;;;;32.87;27.97;;;22.40;88.20;;;;;;4989478;28;20048;-50
2023/05/30 00:15:57;;;;;;;35.23;27.83;;;22.30;88.90;;;;;;4984015;28;20022;-48
2023/05/30 00:18:23;;;;;;;34.58;27.30;;;22.30;88.10;;;;;;4980533;28;20467;-48
2023/05/30 00:20:50;;;;;;;35.72;27.77;;;22.40;87.70;;;;;;4991571;28;20030;-50
2023/05/30 00:23:16;;;;;;;38.35;26.63;;;22.30;86.80;;;;;;4982827;28;20035;-48
2023/05/30 00:25:42;;;;;;;34.88;28.52;;;22.30;86.50;;;;;;4994831;28;20076;-48
2023/05/30 00:28:09;;;;;;;33.65;26.92;;;22.30;85.80;;;;;;4995137;28;20487;-48
2023/05/30 00:30:35;;;;;;;35.17;27.75;;;22.20;85.90;;;;;;4995415;28;20034;-50
2023/05/30 00:33:02;;;;;;;37.47;27.50;;;22.20;86.20;;;;;;4995724;28;20046;-50
2023/05/30 00:35:31;;;;;;;32.58;27.52;;;22.10;86.70;;;;;;4994075;28;20029;-48
2023/05/30 00:38:01;;;;;;;38.15;28.63;;;22.10;87.00;;;;;;4993864;28;20491;-48
2023/05/30 00:40:27;;;;;;;33.42;26.95;;;22.10;87.20;;;;;;4993759;28;20037;-49
2023/05/30 00:42:53;;;;;;;33.55;27.35;;;22.10;87.40;;;;;;4995212;28;20010;-48
2023/05/30 00:45:19;;;;;;;34.40;27.23;;;22.00;87.20;;;;;;4993871;28;20026;-47
2023/05/30 00:47:45;;;;;;;36.93;27.70;;;21.80;87.70;;;;;;4994951;28;20387;-48
2023/05/30 00:50:11;;;;;;;40.70;27.77;;;21.80;88.10;;;;;;4995098;28;20109;-49
2023/05/30 00:52:37;;;;;;;34.25;27.23;;;21.80;88.10;;;;;;4993626;28;20563;-48
2023/05/30 00:55:03;;;;;;;39.00;28.70;;;21.80;88.40;;;;;;4992404;28;20037;-48
2023/05/30 00:57:33;;;;;;;34.57;27.37;;;21.80;87.90;;;;;;4975489;28;20027;-48
2023/05/30 01:00:02;;;;;;;37.03;28.25;;;21.80;87.50;;;;;;4974253;28;20404;-48
2023/05/30 01:02:33;;;;;;;32.55;27.27;;;21.80;87.80;;;;;;4983141;28;20124;-49
2023/05/30 01:05:00;;;;;;;39.88;27.67;;;21.90;88.00;;;;;;4993044;28;20137;-48
2023/05/30 01:07:27;;;;;;;35.35;26.75;;;21.80;87.50;;;;;;4978995;28;20502;-48
2023/05/30 01:09:54;;;;;;;36.45;28.17;;;21.80;86.50;;;;;;4985706;28;20027;-49
2023/05/30 01:12:44;;;;;;;34.25;25.92;;;21.80;85.90;;;;;;4981377;28;20032;-51
2023/05/30 01:15:25;;;;;;;34.25;27.30;;;21.80;84.60;;;;;;5024233;28;20026;-51
2023/05/30 01:18:01;;;;;;;37.58;30.27;;;21.80;85.00;;;;;;4988050;28;20498;-48
2023/05/30 01:20:35;;;;;;;35.25;29.20;;;21.80;84.90;;;;;;4992729;28;20487;-49
2023/05/30 01:23:26;;;;;;;39.13;29.88;;;21.80;86.20;;;;;;4994002;28;20026;-48
2023/05/30 01:26:23;;;;;;;37.20;28.67;;;21.70;87.40;;;;;;5015292;28;20396;-48
2023/05/30 01:28:51;;;;;;;39.13;29.58;;;21.40;88.50;;;;;;4973353;28;20488;-48
2023/05/30 01:31:19;;;;;;;39.00;30.15;;;21.40;90.10;;;;;;4978898;28;20023;-48
2023/05/30 01:33:45;;;;;;;39.50;30.05;;;21.30;90.30;;;;;;5025213;28;20042;-48
2023/05/30 01:36:11;;;;;;;42.22;29.38;;;21.30;90.80;;;;;;4977576;28;20400;-47
2023/05/30 01:38:37;;;;;;;40.10;30.52;;;21.00;91.70;;;;;;4974426;28;20027;-47
2023/05/30 01:41:13;;;;;;;40.50;29.17;;;21.00;91.50;;;;;;4987900;28;20427;-49
2023/05/30 01:44:07;;;;;;;39.53;30.77;;;21.00;91.30;;;;;;4985702;28;20042;-48
2023/05/30 01:46:51;;;;;;;40.75;32.72;;;21.10;91.50;;;;;;4992718;28;20036;-48
2023/05/30 01:49:52;;;;;;;45.50;33.00;;;21.00;91.70;;;;;;4992481;28;20038;-48
2023/05/30 01:52:21;;;;;;;37.80;30.92;;;21.10;92.40;;;;;;4972426;28;20045;-50
2023/05/30 01:54:54;;;;;;;44.45;33.47;;;21.10;92.10;;;;;;4992545;28;20022;-48
2023/05/30 01:57:22;;;;;;;40.60;31.33;;;21.20;91.80;;;;;;4993662;28;20030;-47
2023/05/30 01:59:49;;;;;;;37.13;30.13;;;21.20;92.40;;;;;;4993633;28;20089;-48
2023/05/30 02:02:15;;;;;;;40.30;32.10;;;21.30;92.20;;;;;;5008652;28;20133;-48
2023/05/30 02:04:41;;;;;;;40.33;30.85;;;21.30;92.20;;;;;;4993644;28;20106;-48
2023/05/30 02:07:07;;;;;;;55.70;32.80;;;21.30;92.20;;;;;;4993467;28;20030;-48
2023/05/30 02:09:33;;;;;;;38.63;33.40;;;21.30;92.30;;;;;;4990624;28;20471;-48
2023/05/30 02:11:59;;;;;;;41.28;32.10;;;21.20;92.70;;;;;;4988796;28;20085;-51
2023/05/30 02:14:25;;;;;;;36.92;30.33;;;21.20;92.40;;;;;;4973955;28;20054;-48
2023/05/30 02:16:52;;;;;;;38.53;31.45;;;21.20;92.20;;;;;;4986948;28;20126;-48
2023/05/30 02:19:18;;;;;;;37.57;31.63;;;21.20;92.30;;;;;;4993672;28;20457;-49
2023/05/30 02:21:43;;;;;;;34.83;30.23;;;21.20;92.60;;;;;;4975468;28;20044;-54
2023/05/30 02:24:10;;;;;;;40.15;30.38;;;21.20;92.90;;;;;;4972937;28;20039;-51
2023/05/30 02:26:36;;;;;;;34.30;29.55;;;21.20;93.00;;;;;;5010076;28;20050;-53
2023/05/30 02:29:03;;;;;;;40.42;31.02;;;21.20;93.10;;;;;;4982306;28;20403;-52
2023/05/30 02:31:29;;;;;;;43.15;30.92;;;21.20;93.10;;;;;;4980668;28;20034;-54
2023/05/30 02:33:55;;;;;;;39.17;31.53;;;21.20;92.90;;;;;;4993263;28;20026;-51
2023/05/30 02:36:21;;;;;;;42.05;33.25;;;21.10;93.00;;;;;;5024533;28;20033;-50
2023/05/30 02:38:47;;;;;;;37.90;32.10;;;21.10;93.00;;;;;;4979367;28;20408;-52
2023/05/30 02:41:13;;;;;;;38.67;31.77;;;21.10;93.10;;;;;;4987060;28;20040;-51
2023/05/30 02:43:43;;;;;;;41.40;32.17;;;21.00;93.10;;;;;;5009295;28;20061;-49
2023/05/30 02:46:09;;;;;;;41.25;31.98;;;21.00;92.70;;;;;;4980054;28;20066;-50
2023/05/30 02:48:38;;;;;;;38.45;33.20;;;21.00;93.30;;;;;;5021406;28;20049;-53
2023/05/30 02:51:03;;;;;;;37.53;29.45;;;21.00;93.20;;;;;;4979404;28;20023;-52
2023/05/30 02:53:29;;;;;;;32.53;28.10;;;21.00;93.30;;;;;;4990535;28;20033;-52
2023/05/30 02:55:57;;;;;;;35.47;26.42;;;20.90;93.00;;;;;;5015653;28;20492;-52
2023/05/30 02:58:25;;;;;;;32.47;25.48;;;20.90;92.80;;;;;;4973129;28;20027;-55
2023/05/30 03:01:01;;;;;;;28.70;25.25;;;20.90;92.60;;;;;;4982223;28;20117;-54
2023/05/30 03:03:28;;;;;;;34.85;25.85;;;20.90;92.40;;;;;;4982407;28;20065;-51
2023/05/30 03:06:07;;;;;;;28.05;23.80;;;20.90;92.50;;;;;;4971818;28;20034;-56
2023/05/30 03:09:03;;;;;;;28.45;24.58;;;20.90;92.20;;;;;;4971684;28;20144;-53
2023/05/30 03:11:28;;;;;;;33.67;24.15;;;20.80;92.40;;;;;;4973527;28;20034;-56
2023/05/30 03:13:54;;;;;;;31.85;25.45;;;20.80;92.40;;;;;;4979762;28;20448;-55
2023/05/30 03:16:20;;;;;;;32.57;25.13;;;20.90;92.00;;;;;;4970997;28;20031;-53
2023/05/30 03:18:46;;;;;;;29.65;24.52;;;20.90;92.20;;;;;;4972925;28;20266;-55
2023/05/30 03:21:12;;;;;;;29.97;25.17;;;20.90;92.20;;;;;;4974872;28;20581;-55
2023/05/30 03:23:38;;;;;;;28.88;24.42;;;20.90;92.00;;;;;;4990505;28;20113;-53
2023/05/30 03:26:06;;;;;;;28.50;24.13;;;20.90;91.80;;;;;;4991088;28;20455;-56
2023/05/30 03:28:32;;;;;;;31.15;24.38;;;20.90;91.70;;;;;;4990272;28;20513;-54
2023/05/30 03:31:11;;;;;;;38.35;26.67;;;20.90;91.70;;;;;;4987632;28;20031;-56
2023/05/30 03:33:37;;;;;;;33.58;25.67;;;20.90;91.30;;;;;;5023639;28;20491;-56
2023/05/30 03:36:03;;;;;;;30.70;25.10;;;20.90;91.50;;;;;;5017518;28;20030;-55
2023/05/30 03:38:29;;;;;;;27.98;24.70;;;20.90;91.40;;;;;;4988576;28;20034;-53
2023/05/30 03:40:55;;;;;;;30.37;23.23;;;20.90;91.60;;;;;;4985901;28;20126;-56
2023/05/30 03:43:21;;;;;;;34.83;24.67;;;20.80;91.50;;;;;;4971587;28;20031;-55
2023/05/30 03:45:47;;;;;;;31.42;24.80;;;20.80;91.40;;;;;;4977016;28;20033;-56
2023/05/30 03:48:13;;;;;;;30.35;25.10;;;20.80;91.60;;;;;;4976135;28;20030;-54
2023/05/30 03:50:39;;;;;;;27.25;23.88;;;20.80;91.70;;;;;;4991046;28;20395;-56
2023/05/30 03:53:05;;;;;;;30.77;23.80;;;20.80;91.60;;;;;;4983646;28;20051;-54
2023/05/30 03:55:31;;;;;;;30.60;23.88;;;20.80;91.60;;;;;;4971568;28;20150;-54
2023/05/30 03:57:56;;;;;;;27.00;22.58;;;20.80;91.40;;;;;;4987207;28;20361;-55
2023/05/30 04:00:22;;;;;;;28.50;24.98;;;20.70;91.10;;;;;;4993850;28;20554;-56
2023/05/30 04:02:48;;;;;;;30.60;24.85;;;20.70;91.10;;;;;;4994485;28;20402;-53
2023/05/30 04:05:14;;;;;;;34.22;24.55;;;20.70;91.20;;;;;;4994124;28;20069;-56
2023/05/30 04:07:41;;;;;;;31.08;25.00;;;20.70;91.00;;;;;;4994534;28;20037;-55
2023/05/30 04:10:07;;;;;;;28.85;23.35;;;20.70;91.10;;;;;;4994717;28;20030;-54
2023/05/30 04:12:33;;;;;;;33.88;24.10;;;20.70;91.10;;;;;;4994403;28;20034;-53
2023/05/30 04:14:59;;;;;;;31.30;24.83;;;20.70;90.80;;;;;;4978303;28;20114;-54
2023/05/30 04:17:25;;;;;;;31.02;23.27;;;20.70;90.70;;;;;;4994272;28;20542;-55
2023/05/30 04:19:52;;;;;;;26.40;22.20;;;20.70;91.00;;;;;;4994564;28;20435;-53
2023/05/30 04:22:18;;;;;;;30.35;23.50;;;20.60;91.00;;;;;;4994317;28;20117;-50
2023/05/30 04:24:45;;;;;;;31.15;24.65;;;20.60;91.10;;;;;;4994390;28;20038;-53
2023/05/30 04:27:13;;;;;;;31.50;26.30;;;20.60;91.40;;;;;;4994512;28;20069;-53
2023/05/30 04:29:42;;;;;;;33.95;25.27;;;20.60;91.50;;;;;;4994164;28;20089;-51
2023/05/30 04:32:09;;;;;;;36.30;26.50;;;20.60;91.80;;;;;;5026784;28;20487;-54
2023/05/30 04:34:35;;;;;;;34.20;28.17;;;20.60;91.80;;;;;;4995243;28;20088;-54
2023/05/30 04:37:04;;;;;;;36.57;27.57;;;20.60;91.90;;;;;;5010258;28;20026;-54
2023/05/30 04:39:30;;;;;;;37.97;28.75;;;20.60;92.00;;;;;;4995304;28;20113;-55
2023/05/30 04:41:56;;;;;;;36.93;29.07;;;20.60;92.10;;;;;;4993872;28;20034;-52
2023/05/30 04:44:23;;;;;;;32.88;27.30;;;20.50;92.30;;;;;;4993872;28;20084;-54
2023/05/30 04:46:48;;;;;;;33.00;24.98;;;20.50;92.30;;;;;;4993877;28;20157;-53
2023/05/30 04:49:15;;;;;;;31.10;25.73;;;20.40;92.10;;;;;;4993554;28;20074;-55
2023/05/30 04:51:45;;;;;;;27.65;23.77;;;20.40;92.00;;;;;;4977671;28;20030;-54
2023/05/30 04:54:13;;;;;;;30.20;23.20;;;20.40;92.00;;;;;;4994876;28;20156;-54
2023/05/30 04:56:40;;;;;;;31.48;24.05;;;20.40;92.10;;;;;;4993686;28;20522;-50
2023/05/30 04:59:06;;;;;;;28.53;24.43;;;20.40;92.00;;;;;;4994758;28;20030;-53
2023/05/30 05:01:35;;;;;;;32.03;22.05;;;20.30;92.10;;;;;;4994709;28;20380;-48
2023/05/30 05:04:02;;;;;;;29.17;22.40;;;20.30;92.10;;;;;;4993490;28;20038;-48
2023/05/30 05:06:28;;;;;;;28.83;21.58;;;20.30;92.20;;;;;;4993645;28;20041;-54
2023/05/30 05:08:53;;;;;;;29.58;23.33;;;20.30;92.50;;;;;;4993569;28;20042;-52
2023/05/30 05:11:21;;;;;;;35.15;21.88;;;20.30;92.60;;;;;;4994455;28;20042;-54
2023/05/30 05:13:47;;;;;;;31.02;22.10;;;20.30;92.70;;;;;;4993311;28;20073;-55
2023/05/30 05:16:12;;;;;;;25.13;22.42;;;20.30;92.60;;;;;;4994800;28;20423;-51
2023/05/30 05:18:38;;;;;;;28.70;21.70;;;20.30;92.70;;;;;;4994437;28;20121;-54
2023/05/30 05:21:06;;;;;;;30.85;22.73;;;20.30;92.90;;;;;;4994537;28;20399;-55
2023/05/30 05:23:32;;;;;;;32.35;22.55;;;20.40;92.70;;;;;;4994439;28;20035;-54
2023/05/30 05:26:00;;;;;;;28.27;22.80;;;20.50;93.40;;;;;;4994504;28;20109;-54
2023/05/30 05:28:26;;;;;;;28.58;22.50;;;20.40;93.70;;;;;;4993999;28;20039;-55
2023/05/30 05:30:52;;;;;;;26.30;21.35;;;20.50;93.80;;;;;;4994330;28;20121;-55
2023/05/30 05:33:19;;;;;;;32.35;21.90;;;20.50;93.60;;;;;;4994241;28;20030;-55
2023/05/30 05:35:48;;;;;;;24.60;20.63;;;20.60;93.60;;;;;;4993365;28;20034;-55
2023/05/30 05:38:15;;;;;;;30.10;19.20;;;20.70;93.40;;;;;;4994192;28;20041;-53
2023/05/30 05:40:42;;;;;;;27.35;20.30;;;20.90;93.10;;;;;;4994046;28;20557;-48
2023/05/30 05:43:08;;;;;;;28.90;19.73;;;21.00;93.00;;;;;;4994132;28;20419;-48
2023/05/30 05:45:34;;;;;;;26.55;19.85;;;21.00;92.90;;;;;;4994097;28;20483;-54
2023/05/30 05:48:00;;;;;;;25.15;19.63;;;21.10;92.80;;;;;;4992544;28;20565;-55
2023/05/30 05:50:26;;;;;;;30.00;19.83;;;21.10;92.90;;;;;;4992657;28;20034;-54
2023/05/30 05:52:52;;;;;;;30.30;20.00;;;21.10;93.10;;;;;;4992806;28;20113;-54
2023/05/30 05:55:18;;;;;;;25.50;18.73;;;21.10;93.10;;;;;;4992680;28;20348;-53
2023/05/30 05:57:44;;;;;;;23.52;17.27;;;21.20;92.90;;;;;;4993647;28;20041;-52
2023/05/30 06:00:10;;;;;;;23.00;18.70;;;21.20;91.90;;;;;;4993865;28;20022;-55
2023/05/30 06:02:40;;;;;;;22.83;16.13;;;21.20;91.50;;;;;;4992321;28;20053;-55
2023/05/30 06:05:07;;;;;;;20.35;15.80;;;21.30;90.50;;;;;;4993750;28;20479;-52
2023/05/30 06:07:34;;;;;;;18.67;15.85;;;21.30;90.70;;;;;;4993557;28;20042;-54
2023/05/30 06:09:59;;;;;;;;;;;21.30;90.00;;;;;;4992746;28;20442;-56
2023/05/30 06:12:25;;;;;;;19.88;15.00;;;21.30;89.10;;;;;;4993880;28;19913;-54
2023/05/30 06:14:51;;;;;;;19.27;14.20;;;21.40;89.70;;;;;;4993613;28;20032;-55
2023/05/30 06:17:17;;;;;;;20.80;14.32;;;21.40;88.20;;;;;;4992176;28;20030;-49
2023/05/30 06:19:42;;;;;;;24.15;15.45;;;21.50;86.40;;;;;;4993397;28;20057;-49
2023/05/30 06:22:08;;;;;;;20.05;15.13;;;21.60;86.70;;;;;;4992202;28;20193;-55
2023/05/30 06:24:36;;;;;;;21.73;15.52;;;21.70;86.00;;;;;;4993276;28;20102;-55
2023/05/30 06:27:02;;;;;;;24.65;14.57;;;21.80;84.90;;;;;;4993203;28;20034;-56
2023/05/30 06:29:29;;;;;;;22.15;14.65;;;22.00;83.10;;;;;;4991914;28;20426;-54
2023/05/30 06:31:54;;;;;;;;;;;22.10;82.60;;;;;;4993504;28;20061;-56
2023/05/30 06:34:20;;;;;;;22.98;14.70;;;22.10;83.50;;;;;;4993106;28;19910;-56
2023/05/30 06:36:46;;;;;;;18.03;15.40;;;22.20;84.30;;;;;;4993186;28;20439;-57
2023/05/30 06:39:15;;;;;;;16.97;12.90;;;22.20;82.50;;;;;;4993030;28;20045;-54
2023/05/30 06:41:44;;;;;;;18.52;12.80;;;22.20;81.20;;;;;;4992972;28;20499;-53
2023/05/30 06:44:10;;;;;;;17.73;13.00;;;22.30;80.50;;;;;;4993005;28;20077;-56
2023/05/30 06:46:37;;;;;;;18.20;13.80;;;22.40;79.80;;;;;;4992951;28;20026;-52
2023/05/30 06:49:03;;;;;;;17.58;13.07;;;22.50;79.20;;;;;;4992695;28;20037;-52
2023/05/30 06:51:30;;;;;;;16.20;12.32;;;22.50;79.00;;;;;;4991529;28;20049;-55
2023/05/30 06:53:57;;;;;;;17.13;12.73;;;22.50;78.60;;;;;;4991534;28;20452;-54
2023/05/30 06:56:23;;;;;;;20.17;11.75;;;22.70;78.10;;;;;;4992781;28;20022;-50
2023/05/30 06:58:49;;;;;;;15.30;11.27;;;22.80;75.30;;;;;;4991500;28;20488;-48
2023/05/30 07:01:15;;;;;;;16.97;12.07;;;22.80;73.80;;;;;;4992609;28;20049;-53
2023/05/30 07:03:40;;;;;;;16.58;11.55;;;22.90;73.50;;;;;;4992699;28;20054;-55
2023/05/30 07:06:06;;;;;;;17.30;11.27;;;22.90;74.40;;;;;;4992835;28;20120;-55
2023/05/30 07:08:32;;;;;;;17.67;11.60;;;22.90;73.80;;;;;;4992362;28;20035;-55
2023/05/30 07:10:58;;;;;;;15.67;11.30;;;22.80;73.90;;;;;;4991186;28;20058;-55
2023/05/30 07:13:24;;;;;;;14.10;9.73;;;22.80;73.60;;;;;;4992646;28;20029;-51
2023/05/30 07:15:50;;;;;;;13.53;9.47;;;22.90;72.20;;;;;;4992547;28;20023;-55
2023/05/30 07:18:15;;;;;;;13.23;9.03;;;23.00;72.70;;;;;;4992360;28;20093;-55
2023/05/30 07:20:41;;;;;;;11.73;8.87;;;23.10;72.40;;;;;;4991122;28;20037;-53
2023/05/30 07:23:07;;;;;;;11.63;8.80;;;23.20;70.00;;;;;;4992454;28;20037;-55
2023/05/30 07:25:33;;;;;;;15.90;8.47;;;23.30;69.40;;;;;;4992431;28;20056;-55
2023/05/30 07:27:59;;;;;;;11.40;8.90;;;23.30;68.90;;;;;;4991074;28;20041;-55
2023/05/30 07:30:25;;;;;;;13.45;8.40;;;23.40;67.50;;;;;;4991064;28;20035;-52
2023/05/30 07:32:51;;;;;;;14.55;8.93;;;23.50;67.20;;;;;;4991725;28;20372;-53
2023/05/30 07:35:16;;;;;;;11.67;8.50;;;23.60;67.50;;;;;;4992365;28;20033;-56
2023/05/30 07:37:42;;;;;;;12.97;7.97;;;23.70;67.50;;;;;;4992132;28;20030;-50
2023/05/30 07:40:08;;;;;;;10.80;8.60;;;23.70;66.90;;;;;;4992351;28;20050;-48
2023/05/30 07:42:36;;;;;;;13.85;8.75;;;23.80;66.00;;;;;;4990915;28;20044;-54
2023/05/30 07:45:02;;;;;;;14.63;8.60;;;23.90;66.90;;;;;;4991041;28;20093;-51
2023/05/30 07:47:28;;;;;;;14.88;8.63;;;24.00;66.50;;;;;;4992052;28;20027;-53
2023/05/30 07:49:55;;;;;;;10.80;8.20;;;24.10;66.40;;;;;;4992117;28;20031;-53
2023/05/30 07:52:20;;;;;;;12.35;8.65;;;24.20;65.00;;;;;;4990776;28;20293;-51
2023/05/30 07:54:46;;;;;;;12.63;8.60;;;24.10;64.90;;;;;;4992225;28;20497;-53
2023/05/30 07:57:13;;;;;;;11.83;7.47;;;24.20;65.50;;;;;;4992017;28;20118;-56
2023/05/30 07:59:42;;;;;;;10.73;8.05;;;24.20;64.60;;;;;;4990850;28;20061;-53
2023/05/30 08:02:08;;;;;;;12.20;7.88;;;24.20;64.90;;;;;;4991977;28;21196;-53
2023/05/30 08:04:34;;;;;;;9.60;7.43;;;24.20;65.00;;;;;;4992027;28;20037;-55
2023/05/30 08:07:02;;;;;;;9.60;7.22;;;24.10;64.60;;;;;;4990702;28;20069;-54
2023/05/30 08:09:29;;;;;;;13.60;7.60;;;24.10;64.10;;;;;;4992021;28;20526;-54
2023/05/30 08:11:55;;;;;;;12.57;6.75;;;24.10;64.10;;;;;;4991935;28;20089;-50
2023/05/30 08:14:21;;;;;;;9.57;6.17;;;24.20;64.60;;;;;;4991909;28;20023;-54
2023/05/30 08:16:46;;;;;;;11.17;7.43;;;24.20;64.30;;;;;;4992162;28;20545;-50
2023/05/30 08:19:12;;;;;;;8.30;7.23;;;24.20;63.00;;;;;;4991828;28;20034;-55
2023/05/30 08:21:39;;;;;;;12.80;8.53;;;24.30;63.40;;;;;;4990786;28;20499;-55
2023/05/30 08:24:07;;;;;;;12.52;9.00;;;24.40;62.60;;;;;;4991920;28;20491;-50
2023/05/30 08:26:34;;;;;;;10.73;6.75;;;24.40;62.60;;;;;;4991859;28;20053;-52
2023/05/30 08:29:00;;;;;;;11.32;7.75;;;24.40;64.00;;;;;;4991498;28;20476;-50
2023/05/30 08:31:27;;;;;;;11.40;8.25;;;24.40;63.40;;;;;;4990491;28;20038;-55
2023/05/30 08:33:53;;;;;;;;;;;24.40;63.20;;;;;;4992241;28;20066;-55
2023/05/30 08:36:21;;;;;;;14.88;7.80;;;24.40;62.80;;;;;;4991755;28;20016;-53
2023/05/30 08:38:53;;;;;;;10.95;7.13;;;24.40;63.60;;;;;;4990341;28;20402;-56
2023/05/30 08:41:21;;;;;;;13.60;8.32;;;24.40;62.60;;;;;;4990460;28;20041;-52
2023/05/30 08:43:47;;;;;;;9.88;7.93;;;24.50;63.20;;;;;;4990999;28;20026;-54
2023/05/30 08:46:14;;;;;;;10.85;8.00;;;24.50;63.90;;;;;;4995259;28;20491;-56
2023/05/30 08:48:41;;;;;;;17.15;7.78;;;24.70;62.90;;;;;;4993717;28;20117;-56
2023/05/30 08:51:11;;;;;;;12.65;7.00;;;24.80;62.30;;;;;;4993978;28;20055;-51
2023/05/30 08:53:49;;;;;;;12.27;8.05;;;24.80;61.70;;;;;;4995157;28;20069;-53
2023/05/30 08:56:32;;;;;;;10.07;6.80;;;24.90;61.60;;;;;;4993856;28;20113;-50
2023/05/30 08:59:00;;;;;;;13.18;7.68;;;24.90;60.40;;;;;;4994725;28;20553;-55
2023/05/30 09:01:27;;;;;;;10.13;6.65;;;25.00;61.20;;;;;;4994874;28;20092;-51
2023/05/30 09:03:54;;;;;;;8.88;6.63;;;25.10;61.00;;;;;;4994951;28;20030;-53
2023/05/30 09:06:22;;;;;;;10.95;8.20;;;25.20;60.40;;;;;;4994897;28;20030;-51
2023/05/30 09:08:51;;;;;;;10.10;6.13;;;25.20;60.90;;;;;;4994569;28;20069;-55
2023/05/30 09:11:18;;;;;;;9.63;6.18;;;25.20;61.10;;;;;;4994929;28;20073;-53
2023/05/30 09:13:45;;;;;;;8.65;6.28;;;25.40;60.00;;;;;;4994639;28;20502;-54
2023/05/30 09:16:12;;;;;;;18.50;7.00;;;25.50;59.40;;;;;;4994784;28;20039;-53
2023/05/30 09:18:38;;;;;;;9.80;6.97;;;25.50;57.90;;;;;;4994494;28;20053;-51
2023/05/30 09:21:05;;;;;;;9.07;7.13;;;25.50;56.40;;;;;;4994514;28;20030;-51
2023/05/30 09:23:31;;;;;;;;;;;25.50;57.00;;;;;;4994987;28;20125;-57
2023/05/30 09:26:00;;;;;;;11.85;6.70;;;25.50;55.50;;;;;;5009477;28;19968;-53
2023/05/30 09:28:27;;;;;;;12.43;7.15;;;25.50;57.70;;;;;;4994133;28;20034;-51
2023/05/30 09:30:57;;;;;;;11.98;6.65;;;25.60;58.30;;;;;;4994327;28;20494;-53
2023/05/30 09:33:39;;;;;;;14.63;7.30;;;25.60;56.90;;;;;;4993060;28;20026;-53
2023/05/30 09:36:07;;;;;;;9.15;7.22;;;25.60;58.30;;;;;;4994306;28;20077;-54
2023/05/30 09:38:33;;;;;;;11.70;7.97;;;25.70;58.40;;;;;;4994116;28;20022;-52
2023/05/30 09:41:03;;;;;;;10.65;7.50;;;25.70;58.20;;;;;;4994111;28;20026;-55
2023/05/30 09:43:34;;;;;;;11.27;7.60;;;25.70;57.80;;;;;;4994172;28;20062;-55
2023/05/30 09:46:06;;;;;;;14.32;6.93;;;25.80;57.30;;;;;;4994178;28;20106;-52
2023/05/30 09:48:32;;;;;;;13.93;7.80;;;25.80;58.40;;;;;;4993887;28;20085;-53
2023/05/30 09:51:02;;;;;;;14.63;8.48;;;25.90;59.60;;;;;;4994138;28;20038;-49
2023/05/30 09:53:30;;;;;;;12.85;8.70;;;26.00;57.20;;;;;;4993954;28;20030;-51
2023/05/30 09:55:57;;;;;;;10.40;7.70;;;25.90;57.10;;;;;;4993440;28;20031;-51
2023/05/30 09:58:23;;;;;;;;;;;26.00;57.90;;;;;;4994154;28;20019;-55
2023/05/30 10:00:53;;;;;;;12.77;8.88;;;26.00;59.60;;;;;;4992460;28;19910;-56
2023/05/30 10:03:21;;;;;;;11.57;8.57;;;26.10;57.50;;;;;;4992455;28;20495;-55
2023/05/30 10:05:47;;;;;;;11.93;8.40;;;26.10;56.90;;;;;;4993760;28;20157;-50
2023/05/30 10:08:13;;;;;;;;;;;26.10;59.00;;;;;;4993937;28;20022;-53
2023/05/30 10:10:42;;;;;;;11.90;8.65;;;26.30;58.90;;;;;;4993442;28;20297;-55
2023/05/30 10:13:08;;;;;;;15.88;9.95;;;26.50;58.90;;;;;;4992355;28;20038;-54
2023/05/30 10:15:34;;;;;;;14.27;8.83;;;26.80;57.90;;;;;;4993593;28;20173;-54
2023/05/30 10:18:08;;;;;;;11.00;9.20;;;27.00;57.10;;;;;;4992311;28;20030;-54
2023/05/30 10:20:37;;;;;;;14.73;8.93;;;27.20;56.60;;;;;;4979317;28;20037;-51
2023/05/30 10:23:06;;;;;;;13.65;9.57;;;27.30;56.90;;;;;;4989630;28;20502;-51
2023/05/30 10:25:36;;;;;;;11.45;9.13;;;27.40;56.70;;;;;;4977405;28;20022;-51
2023/05/30 10:28:06;;;;;;;14.02;8.20;;;27.60;56.80;;;;;;4982962;28;20026;-50
2023/05/30 10:30:33;;;;;;;12.73;8.25;;;27.80;55.70;;;;;;4984265;28;20555;-54
2023/05/30 10:32:59;;;;;;;10.02;6.63;;;27.90;56.00;;;;;;4980239;28;20025;-52
2023/05/30 10:35:26;;;;;;;12.00;7.67;;;28.00;54.40;;;;;;4978259;28;20022;-48
2023/05/30 10:37:52;;;;;;;;;;;28.10;55.30;;;;;;4977068;28;20027;-54
2023/05/30 10:40:39;;;;;;;8.88;6.90;;;28.20;56.30;;;;;;4986563;28;19956;-51
2023/05/30 10:43:18;;;;;;;13.70;7.07;;;28.20;55.30;;;;;;4972847;28;20038;-50
2023/05/30 10:46:12;;;;;;;9.57;7.07;;;28.30;53.60;;;;;;4990343;28;20419;-49
2023/05/30 10:48:47;;;;;;;12.13;7.68;;;28.30;52.00;;;;;;4986322;28;20038;-55
2023/05/30 10:51:14;;;;;;;11.15;7.28;;;28.40;52.60;;;;;;4992930;28;20101;-48
2023/05/30 10:53:45;;;;;;;11.45;7.45;;;28.30;53.10;;;;;;4978976;28;20021;-48
2023/05/30 10:56:26;;;;;;;9.68;6.53;;;28.30;53.70;;;;;;5018976;28;20392;-50
2023/05/30 10:58:56;;;;;;;10.77;6.55;;;28.40;54.00;;;;;;4975939;28;20065;-49
2023/05/30 11:01:25;;;;;;;7.07;5.38;;;28.40;54.00;;;;;;5014173;28;20507;-50
2023/05/30 11:04:13;;;;;;;8.23;6.18;;;28.40;51.90;;;;;;4988384;28;20038;-48
2023/05/30 11:06:44;;;;;;;8.98;5.70;;;28.50;50.00;;;;;;4982114;28;20066;-48
2023/05/30 11:09:14;;;;;;;9.65;6.20;;;28.50;51.50;;;;;;4988556;28;20069;-50
2023/05/30 11:11:54;;;;;;;9.55;5.70;;;28.60;50.90;;;;;;4977386;28;20034;-49
2023/05/30 11:14:28;;;;;;;9.55;5.38;;;28.80;50.20;;;;;;4992188;28;20030;-51
2023/05/30 11:16:55;;;;;;;8.90;5.30;;;28.90;51.20;;;;;;4980538;28;20126;-51
2023/05/30 11:19:40;;;;;;;;;;;28.90;50.30;;;;;;4981420;28;20062;-53
2023/05/30 11:22:24;;;;;;;15.65;6.82;;;28.90;51.20;;;;;;4981136;28;19914;-49
2023/05/30 11:25:23;;;;;;;11.02;6.65;;;29.00;50.30;;;;;;4988786;28;20065;-49
2023/05/30 11:28:04;;;;;;;8.02;5.60;;;29.20;48.40;;;;;;4972971;28;20053;-50
2023/05/30 11:30:37;;;;;;;11.48;6.40;;;29.30;51.40;;;;;;4978934;28;20034;-49
2023/05/30 11:33:24;;;;;;;9.95;6.35;;;29.40;48.40;;;;;;4987962;28;20037;-52
2023/05/30 11:35:50;;;;;;;8.85;6.93;;;29.40;50.10;;;;;;4973202;28;20487;-49
2023/05/30 11:38:20;;;;;;;12.90;8.18;;;29.50;49.70;;;;;;4981895;28;20030;-53
2023/05/30 11:40:46;;;;;;;9.70;6.75;;;29.60;49.40;;;;;;4978362;28;20026;-49
2023/05/30 11:43:16;;;;;;;17.98;7.38;;;29.60;49.90;;;;;;4988528;28;20084;-51
2023/05/30 11:45:43;;;;;;;12.73;7.20;;;29.70;49.50;;;;;;4977619;28;20510;-50
2023/05/30 11:48:10;;;;;;;10.77;6.60;;;29.60;50.00;;;;;;4983245;28;20432;-51
2023/05/30 11:50:42;;;;;;;12.32;6.57;;;29.70;50.40;;;;;;4982825;28;20052;-49
2023/05/30 11:53:16;;;;;;;16.25;8.60;;;29.70;49.60;;;;;;4982036;28;20372;-53
2023/05/30 11:55:46;;;;;;;9.52;6.60;;;29.80;50.00;;;;;;4987358;28;20035;-49
2023/05/30 11:58:14;;;;;;;12.32;6.65;;;29.80;48.80;;;;;;4979808;28;20068;-54
2023/05/30 12:00:41;;;;;;;10.38;6.28;;;29.90;49.90;;;;;;4984056;28;20027;-53
2023/05/30 12:03:08;;;;;;;;;;;30.10;50.30;;;;;;4987209;28;20031;-51
2023/05/30 12:05:34;;;;;;;;;;;30.20;48.30;;;;;;5004829;28;19917;-54
2023/05/30 12:08:06;;;;;;;8.93;6.38;;;30.20;49.60;;;;;;4981979;28;19964;-51
2023/05/30 12:10:32;;;;;;;11.77;6.75;;;30.30;50.10;;;;;;5011309;28;20182;-49
2023/05/30 12:13:00;;;;;;;14.03;7.67;;;30.40;50.00;;;;;;4977054;23;20067;-55
2023/05/30 12:15:26;;;;;;;10.68;7.03;;;30.40;48.90;;;;;;4952324;28;20047;-53
2023/05/30 12:17:52;;;;;;;13.87;7.03;;;30.20;49.10;;;;;;4953635;28;20035;-54
2023/05/30 12:20:20;;;;;;;15.23;7.35;;;30.10;49.90;;;;;;4971516;28;20279;-52
2023/05/30 12:22:47;;;;;;;9.50;7.53;;;30.20;49.80;;;;;;4956459;28;20031;-54
2023/05/30 12:25:14;;;;;;;14.40;8.13;;;30.40;50.70;;;;;;4956311;28;20118;-55
2023/05/30 12:27:44;;;;;;;10.70;7.95;;;30.70;49.90;;;;;;4956454;28;20395;-53
2023/05/30 12:30:18;;;;;;;9.82;7.38;;;30.80;48.50;;;;;;4956280;28;20523;-56
2023/05/30 12:32:45;;;;;;;12.10;7.43;;;31.00;49.90;;;;;;4955171;29;20027;-54
2023/05/30 12:35:13;;;;;;;9.57;7.57;;;31.10;49.90;;;;;;4956318;28;20038;-54
2023/05/30 12:37:39;;;;;;;12.93;6.85;;;31.10;48.70;;;;;;4938215;29;20555;-55
2023/05/30 12:40:06;;;;;;;15.63;8.80;;;31.10;49.10;;;;;;4951855;28;20094;-54
2023/05/30 12:42:33;;;;;;;9.30;7.20;;;31.10;46.90;;;;;;4956278;28;20035;-56